sensor_id;sensor_type;location;lat;lon;timestamp;P1;durP1;ratioP1;P2;durP2;ratioP2
24419;SDS011;12599;52.426;13.330;2022-09-14T00:00:45;7.20;;;3.13;;
24419;SDS011;12599;52.426;13.330;2022-09-14T00:03:11;6.60;;;2.93;;
24419;SDS011;12599;52.426;13.330;2022-09-14T00:05:36;6.37;;;2.70;;
24419;SDS011;12599;52.426;13.330;2022-09-14T00:08:02;8.40;;;3.23;;
24419;SDS011;12599;52.426;13.330;2022-09-14T00:10:28;10.10;;;3.40;;
24419;SDS011;12599;52.426;13.330;2022-09-14T00:12:54;5.13;;;3.20;;
24419;SDS011;12599;52.426;13.330;2022-09-14T00:15:20;9.37;;;3.03;;
24419;SDS011;12599;52.426;13.330;2022-09-14T00:17:45;7.33;;;2.73;;
24419;SDS011;12599;52.426;13.330;2022-09-14T00:20:11;5.10;;;2.50;;
24419;SDS011;12599;52.426;13.330;2022-09-14T00:22:37;7.77;;;2.80;;
24419;SDS011;12599;52.426;13.330;2022-09-14T00:25:02;7.03;;;3.03;;
24419;SDS011;12599;52.426;13.330;2022-09-14T00:27:28;8.67;;;2.83;;
24419;SDS011;12599;52.426;13.330;2022-09-14T00:29:54;8.07;;;2.40;;
24419;SDS011;12599;52.426;13.330;2022-09-14T00:32:19;7.13;;;2.33;;
24419;SDS011;12599;52.426;13.330;2022-09-14T00:34:45;6.90;;;2.80;;
24419;SDS011;12599;52.426;13.330;2022-09-14T00:37:11;5.00;;;3.03;;
24419;SDS011;12599;52.426;13.330;2022-09-14T00:39:36;5.30;;;3.00;;
24419;SDS011;12599;52.426;13.330;2022-09-14T00:42:03;6.73;;;3.00;;
24419;SDS011;12599;52.426;13.330;2022-09-14T00:46:59;6.40;;;2.37;;
24419;SDS011;12599;52.426;13.330;2022-09-14T00:49:28;5.00;;;2.27;;
24419;SDS011;12599;52.426;13.330;2022-09-14T00:54:53;6.60;;;2.37;;
24419;SDS011;12599;52.426;13.330;2022-09-14T00:57:22;7.73;;;3.03;;
24419;SDS011;12599;52.426;13.330;2022-09-14T00:59:50;4.40;;;2.73;;
24419;SDS011;12599;52.426;13.330;2022-09-14T01:02:17;11.17;;;3.03;;
24419;SDS011;12599;52.426;13.330;2022-09-14T01:04:45;9.20;;;3.07;;
24419;SDS011;12599;52.426;13.330;2022-09-14T01:12:55;8.30;;;2.90;;
24419;SDS011;12599;52.426;13.330;2022-09-14T01:18:19;10.10;;;2.87;;
24419;SDS011;12599;52.426;13.330;2022-09-14T01:20:54;8.23;;;3.23;;
24419;SDS011;12599;52.426;13.330;2022-09-14T01:23:49;7.50;;;2.80;;
24419;SDS011;12599;52.426;13.330;2022-09-14T01:29:39;4.70;;;2.30;;
24419;SDS011;12599;52.426;13.330;2022-09-14T01:32:24;7.90;;;2.50;;
24419;SDS011;12599;52.426;13.330;2022-09-14T01:35:00;7.17;;;2.90;;
24419;SDS011;12599;52.426;13.330;2022-09-14T01:37:37;8.63;;;3.13;;
24419;SDS011;12599;52.426;13.330;2022-09-14T01:40:19;6.33;;;3.17;;
24419;SDS011;12599;52.426;13.330;2022-09-14T01:42:53;6.57;;;3.10;;
24419;SDS011;12599;52.426;13.330;2022-09-14T01:45:26;7.07;;;2.77;;
24419;SDS011;12599;52.426;13.330;2022-09-14T01:47:54;7.27;;;2.93;;
24419;SDS011;12599;52.426;13.330;2022-09-14T01:50:28;14.27;;;3.43;;
24419;SDS011;12599;52.426;13.330;2022-09-14T01:52:59;6.50;;;3.13;;
24419;SDS011;12599;52.426;13.330;2022-09-14T01:55:38;7.33;;;3.60;;
24419;SDS011;12599;52.426;13.330;2022-09-14T01:58:31;7.30;;;2.87;;
24419;SDS011;12599;52.426;13.330;2022-09-14T02:01:04;6.60;;;3.07;;
24419;SDS011;12599;52.426;13.330;2022-09-14T02:03:37;7.47;;;3.37;;
24419;SDS011;12599;52.426;13.330;2022-09-14T02:08:44;5.10;;;3.10;;
24419;SDS011;12599;52.426;13.330;2022-09-14T02:11:11;8.27;;;3.37;;
24419;SDS011;12599;52.426;13.330;2022-09-14T02:13:36;10.77;;;3.60;;
24419;SDS011;12599;52.426;13.330;2022-09-14T02:16:02;11.13;;;3.83;;
24419;SDS011;12599;52.426;13.330;2022-09-14T02:18:28;8.07;;;3.50;;
24419;SDS011;12599;52.426;13.330;2022-09-14T02:20:59;5.33;;;3.27;;
24419;SDS011;12599;52.426;13.330;2022-09-14T02:23:29;6.80;;;3.50;;
24419;SDS011;12599;52.426;13.330;2022-09-14T02:25:55;6.20;;;3.50;;
24419;SDS011;12599;52.426;13.330;2022-09-14T02:28:22;6.73;;;3.30;;
24419;SDS011;12599;52.426;13.330;2022-09-14T02:30:59;7.63;;;3.87;;
24419;SDS011;12599;52.426;13.330;2022-09-14T02:33:42;6.47;;;3.90;;
24419;SDS011;12599;52.426;13.330;2022-09-14T02:47:50;9.50;;;4.00;;
24419;SDS011;12599;52.426;13.330;2022-09-14T02:55:40;6.80;;;3.80;;
24419;SDS011;12599;52.426;13.330;2022-09-14T02:58:11;9.53;;;4.13;;
24419;SDS011;12599;52.426;13.330;2022-09-14T03:00:39;9.27;;;3.80;;
24419;SDS011;12599;52.426;13.330;2022-09-14T03:03:10;8.20;;;4.27;;
24419;SDS011;12599;52.426;13.330;2022-09-14T03:05:38;7.73;;;3.97;;
24419;SDS011;12599;52.426;13.330;2022-09-14T03:08:04;8.80;;;4.43;;
24419;SDS011;12599;52.426;13.330;2022-09-14T03:10:30;5.87;;;3.80;;
24419;SDS011;12599;52.426;13.330;2022-09-14T03:12:56;10.50;;;3.70;;
24419;SDS011;12599;52.426;13.330;2022-09-14T03:15:23;10.53;;;4.00;;
24419;SDS011;12599;52.426;13.330;2022-09-14T03:17:49;7.47;;;4.17;;
24419;SDS011;12599;52.426;13.330;2022-09-14T03:20:16;8.87;;;4.10;;
24419;SDS011;12599;52.426;13.330;2022-09-14T03:22:45;9.30;;;4.10;;
24419;SDS011;12599;52.426;13.330;2022-09-14T03:25:11;7.93;;;4.33;;
24419;SDS011;12599;52.426;13.330;2022-09-14T03:27:37;5.70;;;3.80;;
24419;SDS011;12599;52.426;13.330;2022-09-14T03:30:03;8.63;;;4.23;;
24419;SDS011;12599;52.426;13.330;2022-09-14T03:32:30;6.70;;;3.90;;
24419;SDS011;12599;52.426;13.330;2022-09-14T03:34:56;5.40;;;4.20;;
24419;SDS011;12599;52.426;13.330;2022-09-14T03:37:23;8.43;;;4.17;;
24419;SDS011;12599;52.426;13.330;2022-09-14T03:39:49;10.53;;;4.57;;
24419;SDS011;12599;52.426;13.330;2022-09-14T03:42:14;6.97;;;3.70;;
24419;SDS011;12599;52.426;13.330;2022-09-14T03:44:40;6.90;;;4.20;;
24419;SDS011;12599;52.426;13.330;2022-09-14T03:47:05;8.73;;;4.27;;
24419;SDS011;12599;52.426;13.330;2022-09-14T03:49:32;8.73;;;4.50;;
24419;SDS011;12599;52.426;13.330;2022-09-14T03:51:58;9.03;;;4.40;;
24419;SDS011;12599;52.426;13.330;2022-09-14T03:54:23;10.60;;;4.50;;
24419;SDS011;12599;52.426;13.330;2022-09-14T03:56:50;7.83;;;3.83;;
24419;SDS011;12599;52.426;13.330;2022-09-14T03:59:16;7.37;;;4.70;;
24419;SDS011;12599;52.426;13.330;2022-09-14T04:01:42;10.83;;;4.87;;
24419;SDS011;12599;52.426;13.330;2022-09-14T04:04:08;6.30;;;4.53;;
24419;SDS011;12599;52.426;13.330;2022-09-14T04:06:34;9.00;;;4.20;;
24419;SDS011;12599;52.426;13.330;2022-09-14T04:08:59;6.70;;;4.40;;
24419;SDS011;12599;52.426;13.330;2022-09-14T04:11:25;6.37;;;4.40;;
24419;SDS011;12599;52.426;13.330;2022-09-14T04:13:51;13.43;;;4.50;;
24419;SDS011;12599;52.426;13.330;2022-09-14T04:16:17;12.30;;;4.80;;
24419;SDS011;12599;52.426;13.330;2022-09-14T04:18:46;10.23;;;4.67;;
24419;SDS011;12599;52.426;13.330;2022-09-14T04:21:14;14.10;;;4.80;;
24419;SDS011;12599;52.426;13.330;2022-09-14T04:23:41;8.30;;;5.03;;
24419;SDS011;12599;52.426;13.330;2022-09-14T04:26:16;10.77;;;5.00;;
24419;SDS011;12599;52.426;13.330;2022-09-14T04:28:42;9.20;;;4.37;;
24419;SDS011;12599;52.426;13.330;2022-09-14T04:31:08;10.37;;;4.50;;
24419;SDS011;12599;52.426;13.330;2022-09-14T04:33:35;6.70;;;4.13;;
24419;SDS011;12599;52.426;13.330;2022-09-14T04:36:12;6.60;;;4.50;;
24419;SDS011;12599;52.426;13.330;2022-09-14T04:38:39;7.70;;;4.20;;
24419;SDS011;12599;52.426;13.330;2022-09-14T04:41:06;8.60;;;4.00;;
24419;SDS011;12599;52.426;13.330;2022-09-14T04:43:40;6.03;;;4.37;;
24419;SDS011;12599;52.426;13.330;2022-09-14T04:46:10;9.50;;;4.53;;
24419;SDS011;12599;52.426;13.330;2022-09-14T04:48:38;7.17;;;4.37;;
24419;SDS011;12599;52.426;13.330;2022-09-14T04:51:07;6.97;;;4.93;;
24419;SDS011;12599;52.426;13.330;2022-09-14T04:53:38;9.53;;;4.37;;
24419;SDS011;12599;52.426;13.330;2022-09-14T04:56:06;8.30;;;4.27;;
24419;SDS011;12599;52.426;13.330;2022-09-14T04:58:33;5.93;;;4.43;;
24419;SDS011;12599;52.426;13.330;2022-09-14T05:01:06;7.47;;;4.37;;
24419;SDS011;12599;52.426;13.330;2022-09-14T05:03:33;5.50;;;4.17;;
24419;SDS011;12599;52.426;13.330;2022-09-14T05:06:04;5.33;;;3.80;;
24419;SDS011;12599;52.426;13.330;2022-09-14T05:08:31;10.13;;;4.63;;
24419;SDS011;12599;52.426;13.330;2022-09-14T05:10:58;9.33;;;4.07;;
24419;SDS011;12599;52.426;13.330;2022-09-14T05:13:24;8.13;;;4.40;;
24419;SDS011;12599;52.426;13.330;2022-09-14T05:15:50;10.77;;;4.73;;
24419;SDS011;12599;52.426;13.330;2022-09-14T05:18:16;9.37;;;4.13;;
24419;SDS011;12599;52.426;13.330;2022-09-14T05:20:42;6.70;;;3.97;;
24419;SDS011;12599;52.426;13.330;2022-09-14T05:23:08;6.17;;;3.47;;
24419;SDS011;12599;52.426;13.330;2022-09-14T05:25:33;8.10;;;3.80;;
24419;SDS011;12599;52.426;13.330;2022-09-14T05:27:59;7.67;;;3.60;;
24419;SDS011;12599;52.426;13.330;2022-09-14T05:30:24;6.80;;;3.70;;
24419;SDS011;12599;52.426;13.330;2022-09-14T05:32:50;10.20;;;4.67;;
24419;SDS011;12599;52.426;13.330;2022-09-14T05:35:16;6.50;;;3.80;;
24419;SDS011;12599;52.426;13.330;2022-09-14T05:37:42;8.30;;;3.70;;
24419;SDS011;12599;52.426;13.330;2022-09-14T05:40:07;10.37;;;3.80;;
24419;SDS011;12599;52.426;13.330;2022-09-14T05:42:33;8.83;;;4.23;;
24419;SDS011;12599;52.426;13.330;2022-09-14T05:44:59;8.20;;;3.60;;
24419;SDS011;12599;52.426;13.330;2022-09-14T05:47:25;9.93;;;4.57;;
24419;SDS011;12599;52.426;13.330;2022-09-14T05:49:53;10.43;;;4.10;;
24419;SDS011;12599;52.426;13.330;2022-09-14T05:52:19;8.87;;;3.43;;
24419;SDS011;12599;52.426;13.330;2022-09-14T05:54:44;8.47;;;3.97;;
24419;SDS011;12599;52.426;13.330;2022-09-14T05:57:10;8.40;;;3.90;;
24419;SDS011;12599;52.426;13.330;2022-09-14T05:59:35;8.27;;;3.60;;
24419;SDS011;12599;52.426;13.330;2022-09-14T06:02:01;7.63;;;3.63;;
24419;SDS011;12599;52.426;13.330;2022-09-14T06:04:27;6.57;;;3.33;;
24419;SDS011;12599;52.426;13.330;2022-09-14T06:06:53;7.90;;;3.37;;
24419;SDS011;12599;52.426;13.330;2022-09-14T06:09:19;8.17;;;3.57;;
24419;SDS011;12599;52.426;13.330;2022-09-14T06:11:44;6.83;;;3.03;;
24419;SDS011;12599;52.426;13.330;2022-09-14T06:14:10;9.77;;;2.80;;
24419;SDS011;12599;52.426;13.330;2022-09-14T06:16:36;8.80;;;3.40;;
24419;SDS011;12599;52.426;13.330;2022-09-14T06:19:01;8.67;;;3.17;;
24419;SDS011;12599;52.426;13.330;2022-09-14T06:21:32;5.70;;;2.90;;
24419;SDS011;12599;52.426;13.330;2022-09-14T06:23:59;9.33;;;3.33;;
24419;SDS011;12599;52.426;13.330;2022-09-14T06:26:26;7.53;;;2.77;;
24419;SDS011;12599;52.426;13.330;2022-09-14T06:28:53;6.83;;;3.13;;
24419;SDS011;12599;52.426;13.330;2022-09-14T06:31:19;7.70;;;3.10;;
24419;SDS011;12599;52.426;13.330;2022-09-14T06:33:47;7.23;;;2.93;;
24419;SDS011;12599;52.426;13.330;2022-09-14T06:36:14;6.83;;;3.23;;
24419;SDS011;12599;52.426;13.330;2022-09-14T06:38:43;5.87;;;2.67;;
24419;SDS011;12599;52.426;13.330;2022-09-14T06:41:10;6.50;;;3.50;;
24419;SDS011;12599;52.426;13.330;2022-09-14T06:43:38;10.67;;;3.43;;
24419;SDS011;12599;52.426;13.330;2022-09-14T06:46:10;10.80;;;3.10;;
24419;SDS011;12599;52.426;13.330;2022-09-14T06:48:43;12.03;;;3.23;;
24419;SDS011;12599;52.426;13.330;2022-09-14T06:53:38;8.07;;;3.57;;
24419;SDS011;12599;52.426;13.330;2022-09-14T06:56:04;8.03;;;2.90;;
24419;SDS011;12599;52.426;13.330;2022-09-14T06:58:31;13.10;;;3.20;;
24419;SDS011;12599;52.426;13.330;2022-09-14T07:01:01;7.93;;;2.63;;
24419;SDS011;12599;52.426;13.330;2022-09-14T07:03:31;4.40;;;2.30;;
24419;SDS011;12599;52.426;13.330;2022-09-14T07:06:09;5.87;;;2.57;;
24419;SDS011;12599;52.426;13.330;2022-09-14T07:08:37;5.93;;;2.33;;
24419;SDS011;12599;52.426;13.330;2022-09-14T07:11:04;8.13;;;3.00;;
24419;SDS011;12599;52.426;13.330;2022-09-14T07:13:31;15.07;;;2.83;;
24419;SDS011;12599;52.426;13.330;2022-09-14T07:15:57;7.53;;;2.77;;
24419;SDS011;12599;52.426;13.330;2022-09-14T07:18:23;8.50;;;2.37;;
24419;SDS011;12599;52.426;13.330;2022-09-14T07:20:59;10.23;;;2.60;;
24419;SDS011;12599;52.426;13.330;2022-09-14T07:23:28;9.87;;;2.90;;
24419;SDS011;12599;52.426;13.330;2022-09-14T07:26:01;6.77;;;2.70;;
24419;SDS011;12599;52.426;13.330;2022-09-14T07:28:32;6.63;;;2.47;;
24419;SDS011;12599;52.426;13.330;2022-09-14T07:31:00;9.20;;;2.70;;
24419;SDS011;12599;52.426;13.330;2022-09-14T07:33:27;6.27;;;2.80;;
24419;SDS011;12599;52.426;13.330;2022-09-14T07:35:53;5.80;;;2.30;;
24419;SDS011;12599;52.426;13.330;2022-09-14T07:38:19;9.90;;;3.20;;
24419;SDS011;12599;52.426;13.330;2022-09-14T07:40:45;6.83;;;3.23;;
24419;SDS011;12599;52.426;13.330;2022-09-14T07:43:11;6.10;;;2.30;;
24419;SDS011;12599;52.426;13.330;2022-09-14T07:45:37;7.03;;;2.30;;
24419;SDS011;12599;52.426;13.330;2022-09-14T07:48:04;20.10;;;6.70;;
24419;SDS011;12599;52.426;13.330;2022-09-14T07:50:30;11.07;;;3.23;;
24419;SDS011;12599;52.426;13.330;2022-09-14T07:52:55;14.07;;;3.33;;
24419;SDS011;12599;52.426;13.330;2022-09-14T07:55:22;9.30;;;3.10;;
24419;SDS011;12599;52.426;13.330;2022-09-14T07:57:47;6.97;;;2.53;;
24419;SDS011;12599;52.426;13.330;2022-09-14T08:00:13;9.33;;;2.67;;
24419;SDS011;12599;52.426;13.330;2022-09-14T08:02:41;9.97;;;2.57;;
24419;SDS011;12599;52.426;13.330;2022-09-14T08:05:07;10.17;;;2.40;;
24419;SDS011;12599;52.426;13.330;2022-09-14T08:07:33;7.63;;;2.47;;
24419;SDS011;12599;52.426;13.330;2022-09-14T08:09:59;11.17;;;4.07;;
24419;SDS011;12599;52.426;13.330;2022-09-14T08:12:26;14.53;;;3.97;;
24419;SDS011;12599;52.426;13.330;2022-09-14T08:14:51;10.23;;;2.20;;
24419;SDS011;12599;52.426;13.330;2022-09-14T08:17:17;6.33;;;2.40;;
24419;SDS011;12599;52.426;13.330;2022-09-14T08:19:46;8.53;;;2.03;;
24419;SDS011;12599;52.426;13.330;2022-09-14T08:22:12;9.17;;;2.63;;
24419;SDS011;12599;52.426;13.330;2022-09-14T08:24:37;9.93;;;2.40;;
24419;SDS011;12599;52.426;13.330;2022-09-14T08:27:04;5.63;;;1.93;;
24419;SDS011;12599;52.426;13.330;2022-09-14T08:29:29;8.67;;;2.60;;
24419;SDS011;12599;52.426;13.330;2022-09-14T08:31:55;5.43;;;1.80;;
24419;SDS011;12599;52.426;13.330;2022-09-14T08:34:21;8.53;;;2.47;;
24419;SDS011;12599;52.426;13.330;2022-09-14T08:36:48;10.40;;;2.17;;
24419;SDS011;12599;52.426;13.330;2022-09-14T08:39:14;8.27;;;2.07;;
24419;SDS011;12599;52.426;13.330;2022-09-14T08:41:48;9.43;;;2.70;;
24419;SDS011;12599;52.426;13.330;2022-09-14T08:44:23;6.17;;;2.07;;
24419;SDS011;12599;52.426;13.330;2022-09-14T08:46:53;6.93;;;2.00;;
24419;SDS011;12599;52.426;13.330;2022-09-14T08:49:28;5.93;;;1.83;;
24419;SDS011;12599;52.426;13.330;2022-09-14T08:51:58;7.67;;;2.63;;
24419;SDS011;12599;52.426;13.330;2022-09-14T08:54:26;5.50;;;1.77;;
24419;SDS011;12599;52.426;13.330;2022-09-14T08:57:05;6.80;;;2.10;;
24419;SDS011;12599;52.426;13.330;2022-09-14T09:00:05;7.87;;;2.00;;
24419;SDS011;12599;52.426;13.330;2022-09-14T09:05:29;6.23;;;2.30;;
24419;SDS011;12599;52.426;13.330;2022-09-14T09:08:48;7.60;;;2.20;;
24419;SDS011;12599;52.426;13.330;2022-09-14T09:11:07;5.27;;;2.07;;
24419;SDS011;12599;52.426;13.330;2022-09-14T09:13:38;9.40;;;2.00;;
24419;SDS011;12599;52.426;13.330;2022-09-14T09:16:06;6.67;;;2.30;;
24419;SDS011;12599;52.426;13.330;2022-09-14T09:18:41;6.40;;;2.80;;
24419;SDS011;12599;52.426;13.330;2022-09-14T09:21:17;10.67;;;2.67;;
24419;SDS011;12599;52.426;13.330;2022-09-14T09:23:54;9.00;;;2.47;;
24419;SDS011;12599;52.426;13.330;2022-09-14T09:26:34;7.60;;;1.90;;
24419;SDS011;12599;52.426;13.330;2022-09-14T09:29:00;6.13;;;2.20;;
24419;SDS011;12599;52.426;13.330;2022-09-14T09:31:29;9.57;;;2.70;;
24419;SDS011;12599;52.426;13.330;2022-09-14T09:33:58;4.40;;;2.13;;
24419;SDS011;12599;52.426;13.330;2022-09-14T09:36:25;8.70;;;2.00;;
24419;SDS011;12599;52.426;13.330;2022-09-14T09:38:59;6.90;;;1.90;;
24419;SDS011;12599;52.426;13.330;2022-09-14T09:41:25;5.43;;;2.00;;
24419;SDS011;12599;52.426;13.330;2022-09-14T09:43:58;9.13;;;2.10;;
24419;SDS011;12599;52.426;13.330;2022-09-14T09:46:29;9.43;;;1.90;;
24419;SDS011;12599;52.426;13.330;2022-09-14T09:49:03;4.90;;;1.57;;
24419;SDS011;12599;52.426;13.330;2022-09-14T09:51:43;7.50;;;2.10;;
24419;SDS011;12599;52.426;13.330;2022-09-14T09:56:40;8.20;;;1.97;;
24419;SDS011;12599;52.426;13.330;2022-09-14T09:59:25;7.47;;;2.20;;
24419;SDS011;12599;52.426;13.330;2022-09-14T10:01:52;4.67;;;1.80;;
24419;SDS011;12599;52.426;13.330;2022-09-14T10:04:21;5.37;;;1.97;;
24419;SDS011;12599;52.426;13.330;2022-09-14T10:06:54;11.20;;;2.03;;
24419;SDS011;12599;52.426;13.330;2022-09-14T10:09:26;6.37;;;1.93;;
24419;SDS011;12599;52.426;13.330;2022-09-14T10:11:59;3.53;;;1.90;;
24419;SDS011;12599;52.426;13.330;2022-09-14T10:17:02;5.70;;;2.07;;
24419;SDS011;12599;52.426;13.330;2022-09-14T10:19:48;5.87;;;1.80;;
24419;SDS011;12599;52.426;13.330;2022-09-14T10:24:56;6.13;;;2.27;;
24419;SDS011;12599;52.426;13.330;2022-09-14T10:27:40;5.57;;;2.23;;
24419;SDS011;12599;52.426;13.330;2022-09-14T10:30:36;6.40;;;2.13;;
24419;SDS011;12599;52.426;13.330;2022-09-14T10:33:09;7.53;;;2.00;;
24419;SDS011;12599;52.426;13.330;2022-09-14T10:38:38;5.63;;;2.33;;
24419;SDS011;12599;52.426;13.330;2022-09-14T10:52:19;7.40;;;2.40;;
24419;SDS011;12599;52.426;13.330;2022-09-14T10:57:38;4.53;;;1.60;;
24419;SDS011;12599;52.426;13.330;2022-09-14T11:00:19;7.93;;;2.37;;
24419;SDS011;12599;52.426;13.330;2022-09-14T11:02:51;5.83;;;1.87;;
24419;SDS011;12599;52.426;13.330;2022-09-14T11:05:33;5.23;;;1.67;;
24419;SDS011;12599;52.426;13.330;2022-09-14T11:08:14;7.17;;;2.10;;
24419;SDS011;12599;52.426;13.330;2022-09-14T11:11:09;7.07;;;1.67;;
24419;SDS011;12599;52.426;13.330;2022-09-14T11:19:30;4.67;;;1.90;;
24419;SDS011;12599;52.426;13.330;2022-09-14T11:25:12;4.80;;;2.00;;
24419;SDS011;12599;52.426;13.330;2022-09-14T11:27:56;7.33;;;1.67;;
24419;SDS011;12599;52.426;13.330;2022-09-14T11:30:28;5.10;;;1.80;;
24419;SDS011;12599;52.426;13.330;2022-09-14T11:33:10;6.93;;;2.13;;
24419;SDS011;12599;52.426;13.330;2022-09-14T11:35:44;3.77;;;1.80;;
24419;SDS011;12599;52.426;13.330;2022-09-14T11:38:19;6.60;;;2.20;;
24419;SDS011;12599;52.426;13.330;2022-09-14T11:40:55;5.03;;;2.00;;
24419;SDS011;12599;52.426;13.330;2022-09-14T11:43:28;3.80;;;1.57;;
24419;SDS011;12599;52.426;13.330;2022-09-14T11:51:02;6.87;;;2.00;;
24419;SDS011;12599;52.426;13.330;2022-09-14T11:53:35;4.43;;;1.53;;
24419;SDS011;12599;52.426;13.330;2022-09-14T11:56:01;5.87;;;1.73;;
24419;SDS011;12599;52.426;13.330;2022-09-14T11:58:28;8.43;;;1.90;;
24419;SDS011;12599;52.426;13.330;2022-09-14T12:01:00;5.83;;;1.87;;
24419;SDS011;12599;52.426;13.330;2022-09-14T12:03:44;9.10;;;1.90;;
24419;SDS011;12599;52.426;13.330;2022-09-14T12:08:53;3.90;;;1.90;;
24419;SDS011;12599;52.426;13.330;2022-09-14T12:11:41;5.03;;;1.97;;
24419;SDS011;12599;52.426;13.330;2022-09-14T12:14:11;7.70;;;2.10;;
24419;SDS011;12599;52.426;13.330;2022-09-14T12:19:27;5.07;;;2.13;;
24419;SDS011;12599;52.426;13.330;2022-09-14T12:21:54;6.97;;;2.20;;
24419;SDS011;12599;52.426;13.330;2022-09-14T12:24:19;8.30;;;2.00;;
24419;SDS011;12599;52.426;13.330;2022-09-14T12:26:47;5.43;;;1.90;;
24419;SDS011;12599;52.426;13.330;2022-09-14T12:29:23;5.27;;;1.90;;
24419;SDS011;12599;52.426;13.330;2022-09-14T12:32:00;8.20;;;1.77;;
24419;SDS011;12599;52.426;13.330;2022-09-14T12:34:29;6.40;;;2.60;;
24419;SDS011;12599;52.426;13.330;2022-09-14T12:42:45;6.43;;;1.77;;
24419;SDS011;12599;52.426;13.330;2022-09-14T12:57:15;5.50;;;2.00;;
24419;SDS011;12599;52.426;13.330;2022-09-14T13:00:16;6.93;;;1.93;;
24419;SDS011;12599;52.426;13.330;2022-09-14T13:05:25;6.93;;;2.53;;
24419;SDS011;12599;52.426;13.330;2022-09-14T13:07:53;7.40;;;2.27;;
24419;SDS011;12599;52.426;13.330;2022-09-14T13:10:32;6.43;;;1.90;;
24419;SDS011;12599;52.426;13.330;2022-09-14T13:13:01;8.97;;;2.47;;
24419;SDS011;12599;52.426;13.330;2022-09-14T13:15:31;6.30;;;2.17;;
24419;SDS011;12599;52.426;13.330;2022-09-14T13:21:01;6.47;;;1.73;;
24419;SDS011;12599;52.426;13.330;2022-09-14T13:23:41;7.20;;;2.17;;
24419;SDS011;12599;52.426;13.330;2022-09-14T13:26:10;7.60;;;1.87;;
24419;SDS011;12599;52.426;13.330;2022-09-14T13:28:45;7.90;;;2.40;;
24419;SDS011;12599;52.426;13.330;2022-09-14T13:31:13;3.43;;;1.90;;
24419;SDS011;12599;52.426;13.330;2022-09-14T13:33:46;5.60;;;1.80;;
24419;SDS011;12599;52.426;13.330;2022-09-14T13:36:19;7.97;;;2.60;;
24419;SDS011;12599;52.426;13.330;2022-09-14T13:38:48;7.70;;;2.20;;
24419;SDS011;12599;52.426;13.330;2022-09-14T13:41:15;4.90;;;1.90;;
24419;SDS011;12599;52.426;13.330;2022-09-14T13:43:43;6.23;;;1.93;;
24419;SDS011;12599;52.426;13.330;2022-09-14T13:46:11;6.77;;;1.93;;
24419;SDS011;12599;52.426;13.330;2022-09-14T13:48:38;6.77;;;2.23;;
24419;SDS011;12599;52.426;13.330;2022-09-14T13:51:05;6.43;;;2.00;;
24419;SDS011;12599;52.426;13.330;2022-09-14T13:53:40;5.77;;;1.90;;
24419;SDS011;12599;52.426;13.330;2022-09-14T13:59:28;4.40;;;1.80;;
24419;SDS011;12599;52.426;13.330;2022-09-14T14:04:28;6.77;;;2.37;;
24419;SDS011;12599;52.426;13.330;2022-09-14T14:07:18;5.00;;;1.63;;
24419;SDS011;12599;52.426;13.330;2022-09-14T14:09:49;5.33;;;1.70;;
24419;SDS011;12599;52.426;13.330;2022-09-14T14:12:27;8.20;;;1.83;;
24419;SDS011;12599;52.426;13.330;2022-09-14T14:15:03;9.00;;;2.20;;
24419;SDS011;12599;52.426;13.330;2022-09-14T14:17:36;7.10;;;2.30;;
24419;SDS011;12599;52.426;13.330;2022-09-14T14:25:33;6.27;;;1.93;;
24419;SDS011;12599;52.426;13.330;2022-09-14T14:28:04;5.27;;;2.00;;
24419;SDS011;12599;52.426;13.330;2022-09-14T14:30:40;6.53;;;1.90;;
24419;SDS011;12599;52.426;13.330;2022-09-14T14:33:14;6.60;;;2.10;;
24419;SDS011;12599;52.426;13.330;2022-09-14T14:35:43;6.50;;;2.00;;
24419;SDS011;12599;52.426;13.330;2022-09-14T14:38:12;4.07;;;2.00;;
24419;SDS011;12599;52.426;13.330;2022-09-14T14:40:38;4.50;;;2.13;;
24419;SDS011;12599;52.426;13.330;2022-09-14T14:43:05;6.03;;;2.10;;
24419;SDS011;12599;52.426;13.330;2022-09-14T14:45:32;5.37;;;2.03;;
24419;SDS011;12599;52.426;13.330;2022-09-14T14:47:59;5.57;;;1.70;;
24419;SDS011;12599;52.426;13.330;2022-09-14T14:50:27;7.90;;;2.03;;
24419;SDS011;12599;52.426;13.330;2022-09-14T14:52:54;6.40;;;1.67;;
24419;SDS011;12599;52.426;13.330;2022-09-14T14:55:20;5.07;;;2.13;;
24419;SDS011;12599;52.426;13.330;2022-09-14T14:57:48;5.27;;;1.73;;
24419;SDS011;12599;52.426;13.330;2022-09-14T15:00:18;5.73;;;2.13;;
24419;SDS011;12599;52.426;13.330;2022-09-14T15:02:45;6.43;;;2.20;;
24419;SDS011;12599;52.426;13.330;2022-09-14T15:05:12;6.00;;;1.83;;
24419;SDS011;12599;52.426;13.330;2022-09-14T15:07:38;7.93;;;1.90;;
24419;SDS011;12599;52.426;13.330;2022-09-14T15:10:04;4.40;;;1.80;;
24419;SDS011;12599;52.426;13.330;2022-09-14T15:12:30;6.20;;;2.30;;
24419;SDS011;12599;52.426;13.330;2022-09-14T15:14:57;5.13;;;2.17;;
24419;SDS011;12599;52.426;13.330;2022-09-14T15:17:23;5.77;;;2.23;;
24419;SDS011;12599;52.426;13.330;2022-09-14T15:19:48;8.90;;;2.43;;
24419;SDS011;12599;52.426;13.330;2022-09-14T15:22:14;8.03;;;2.67;;
24419;SDS011;12599;52.426;13.330;2022-09-14T15:24:39;10.87;;;2.77;;
24419;SDS011;12599;52.426;13.330;2022-09-14T15:27:05;4.50;;;2.00;;
24419;SDS011;12599;52.426;13.330;2022-09-14T15:29:31;6.10;;;2.13;;
24419;SDS011;12599;52.426;13.330;2022-09-14T15:31:57;5.20;;;2.13;;
24419;SDS011;12599;52.426;13.330;2022-09-14T15:34:22;7.43;;;2.47;;
24419;SDS011;12599;52.426;13.330;2022-09-14T15:36:49;5.23;;;1.63;;
24419;SDS011;12599;52.426;13.330;2022-09-14T15:39:18;7.70;;;2.33;;
24419;SDS011;12599;52.426;13.330;2022-09-14T15:41:49;5.30;;;2.27;;
24419;SDS011;12599;52.426;13.330;2022-09-14T15:44:14;5.70;;;2.00;;
24419;SDS011;12599;52.426;13.330;2022-09-14T15:46:40;5.73;;;1.93;;
24419;SDS011;12599;52.426;13.330;2022-09-14T15:49:19;6.97;;;1.87;;
24419;SDS011;12599;52.426;13.330;2022-09-14T15:51:47;5.50;;;2.30;;
24419;SDS011;12599;52.426;13.330;2022-09-14T15:54:14;7.53;;;2.30;;
24419;SDS011;12599;52.426;13.330;2022-09-14T15:56:41;5.53;;;2.07;;
24419;SDS011;12599;52.426;13.330;2022-09-14T15:59:11;6.53;;;2.00;;
24419;SDS011;12599;52.426;13.330;2022-09-14T16:01:37;6.13;;;2.20;;
24419;SDS011;12599;52.426;13.330;2022-09-14T16:04:03;7.37;;;2.10;;
24419;SDS011;12599;52.426;13.330;2022-09-14T16:06:31;3.17;;;1.97;;
24419;SDS011;12599;52.426;13.330;2022-09-14T16:09:00;7.33;;;2.57;;
24419;SDS011;12599;52.426;13.330;2022-09-14T16:11:30;8.17;;;2.60;;
24419;SDS011;12599;52.426;13.330;2022-09-14T16:13:58;6.50;;;2.50;;
24419;SDS011;12599;52.426;13.330;2022-09-14T16:16:24;7.03;;;2.60;;
24419;SDS011;12599;52.426;13.330;2022-09-14T16:18:50;8.83;;;2.90;;
24419;SDS011;12599;52.426;13.330;2022-09-14T16:21:20;5.27;;;2.37;;
24419;SDS011;12599;52.426;13.330;2022-09-14T16:23:49;7.60;;;2.73;;
24419;SDS011;12599;52.426;13.330;2022-09-14T16:26:18;7.27;;;2.33;;
24419;SDS011;12599;52.426;13.330;2022-09-14T16:28:46;6.53;;;2.40;;
24419;SDS011;12599;52.426;13.330;2022-09-14T16:31:14;5.83;;;2.50;;
24419;SDS011;12599;52.426;13.330;2022-09-14T16:33:45;9.03;;;2.70;;
24419;SDS011;12599;52.426;13.330;2022-09-14T16:36:13;4.60;;;2.27;;
24419;SDS011;12599;52.426;13.330;2022-09-14T16:38:40;7.20;;;3.00;;
24419;SDS011;12599;52.426;13.330;2022-09-14T16:41:06;5.73;;;2.23;;
24419;SDS011;12599;52.426;13.330;2022-09-14T16:43:33;4.13;;;2.30;;
24419;SDS011;12599;52.426;13.330;2022-09-14T16:46:00;10.57;;;2.67;;
24419;SDS011;12599;52.426;13.330;2022-09-14T16:48:33;5.23;;;2.10;;